sensor_id;sensor_type;location;lat;lon;timestamp;temperature;humidity
56172;DHT22;42052;41.634;-0.946;2023-07-22T00:02:13;26.50;41.20
56172;DHT22;42052;41.634;-0.946;2023-07-22T00:04:39;26.50;41.10
56172;DHT22;42052;41.634;-0.946;2023-07-22T00:07:05;26.50;41.00
56172;DHT22;42052;41.634;-0.946;2023-07-22T00:09:33;26.40;40.90
56172;DHT22;42052;41.634;-0.946;2023-07-22T00:12:02;26.40;40.70
56172;DHT22;42052;41.634;-0.946;2023-07-22T00:14:28;26.40;40.90
56172;DHT22;42052;41.634;-0.946;2023-07-22T00:16:53;26.40;40.80
56172;DHT22;42052;41.634;-0.946;2023-07-22T00:19:19;26.40;41.00
56172;DHT22;42052;41.634;-0.946;2023-07-22T00:21:45;26.40;40.90
56172;DHT22;42052;41.634;-0.946;2023-07-22T00:24:10;26.40;40.80
56172;DHT22;42052;41.634;-0.946;2023-07-22T00:26:36;26.40;40.70
56172;DHT22;42052;41.634;-0.946;2023-07-22T00:29:02;26.40;40.80
56172;DHT22;42052;41.634;-0.946;2023-07-22T00:31:28;26.40;40.70
56172;DHT22;42052;41.634;-0.946;2023-07-22T00:33:54;26.40;40.60
56172;DHT22;42052;41.634;-0.946;2023-07-22T00:36:20;26.40;40.60
56172;DHT22;42052;41.634;-0.946;2023-07-22T00:38:45;26.40;40.50
56172;DHT22;42052;41.634;-0.946;2023-07-22T00:41:11;26.40;40.40
56172;DHT22;42052;41.634;-0.946;2023-07-22T00:43:37;26.40;40.50
56172;DHT22;42052;41.634;-0.946;2023-07-22T00:46:04;26.40;40.30
56172;DHT22;42052;41.634;-0.946;2023-07-22T00:48:30;26.40;40.30
56172;DHT22;42052;41.634;-0.946;2023-07-22T00:50:56;26.40;40.30
56172;DHT22;42052;41.634;-0.946;2023-07-22T00:53:22;26.40;40.20
56172;DHT22;42052;41.634;-0.946;2023-07-22T00:55:48;26.40;40.00
56172;DHT22;42052;41.634;-0.946;2023-07-22T00:58:14;26.40;40.10
56172;DHT22;42052;41.634;-0.946;2023-07-22T01:00:40;26.40;40.00
56172;DHT22;42052;41.634;-0.946;2023-07-22T01:03:06;26.30;39.90
56172;DHT22;42052;41.634;-0.946;2023-07-22T01:05:34;26.40;40.00
56172;DHT22;42052;41.634;-0.946;2023-07-22T01:08:02;26.40;39.70
56172;DHT22;42052;41.634;-0.946;2023-07-22T01:10:29;26.40;39.80
56172;DHT22;42052;41.634;-0.946;2023-07-22T01:12:55;26.40;39.80
56172;DHT22;42052;41.634;-0.946;2023-07-22T01:15:22;26.40;39.80
56172;DHT22;42052;41.634;-0.946;2023-07-22T01:17:48;26.40;39.80
56172;DHT22;42052;41.634;-0.946;2023-07-22T01:20:15;26.30;39.60
56172;DHT22;42052;41.634;-0.946;2023-07-22T01:22:48;26.30;39.50
56172;DHT22;42052;41.634;-0.946;2023-07-22T01:25:15;26.30;39.40
56172;DHT22;42052;41.634;-0.946;2023-07-22T01:27:41;26.30;39.40
56172;DHT22;42052;41.634;-0.946;2023-07-22T01:30:07;26.40;39.60
56172;DHT22;42052;41.634;-0.946;2023-07-22T01:32:35;26.30;39.40
56172;DHT22;42052;41.634;-0.946;2023-07-22T01:35:00;26.30;39.40
56172;DHT22;42052;41.634;-0.946;2023-07-22T01:37:26;26.30;39.40
56172;DHT22;42052;41.634;-0.946;2023-07-22T01:39:52;26.30;39.40
56172;DHT22;42052;41.634;-0.946;2023-07-22T01:42:18;26.30;39.40
56172;DHT22;42052;41.634;-0.946;2023-07-22T01:44:44;26.30;39.40
56172;DHT22;42052;41.634;-0.946;2023-07-22T01:47:10;26.30;39.40
56172;DHT22;42052;41.634;-0.946;2023-07-22T01:49:35;26.30;39.40
56172;DHT22;42052;41.634;-0.946;2023-07-22T01:52:01;26.30;39.40
56172;DHT22;42052;41.634;-0.946;2023-07-22T01:54:27;26.30;39.40
56172;DHT22;42052;41.634;-0.946;2023-07-22T01:56:53;26.30;39.40
56172;DHT22;42052;41.634;-0.946;2023-07-22T01:59:18;26.30;39.30
56172;DHT22;42052;41.634;-0.946;2023-07-22T02:01:44;26.30;39.40
56172;DHT22;42052;41.634;-0.946;2023-07-22T02:04:10;26.20;39.30
56172;DHT22;42052;41.634;-0.946;2023-07-22T02:06:36;26.30;39.40
56172;DHT22;42052;41.634;-0.946;2023-07-22T02:09:03;26.30;39.50
56172;DHT22;42052;41.634;-0.946;2023-07-22T02:11:36;26.20;39.30
56172;DHT22;42052;41.634;-0.946;2023-07-22T02:14:02;26.30;39.50
56172;DHT22;42052;41.634;-0.946;2023-07-22T02:16:35;26.20;39.50
56172;DHT22;42052;41.634;-0.946;2023-07-22T02:19:05;26.20;39.60
56172;DHT22;42052;41.634;-0.946;2023-07-22T02:21:30;26.20;39.30
56172;DHT22;42052;41.634;-0.946;2023-07-22T02:23:56;26.20;39.40
56172;DHT22;42052;41.634;-0.946;2023-07-22T02:26:22;26.30;39.40
56172;DHT22;42052;41.634;-0.946;2023-07-22T02:28:48;26.20;39.40
56172;DHT22;42052;41.634;-0.946;2023-07-22T02:31:13;26.20;39.50
56172;DHT22;42052;41.634;-0.946;2023-07-22T02:33:39;26.30;39.60
56172;DHT22;42052;41.634;-0.946;2023-07-22T02:36:05;26.20;39.50
56172;DHT22;42052;41.634;-0.946;2023-07-22T02:38:31;26.20;39.60
56172;DHT22;42052;41.634;-0.946;2023-07-22T02:41:03;26.20;39.50
56172;DHT22;42052;41.634;-0.946;2023-07-22T02:43:32;26.20;39.50
56172;DHT22;42052;41.634;-0.946;2023-07-22T02:46:03;26.30;39.60
56172;DHT22;42052;41.634;-0.946;2023-07-22T02:48:30;26.20;39.60
56172;DHT22;42052;41.634;-0.946;2023-07-22T02:51:05;26.20;39.60
56172;DHT22;42052;41.634;-0.946;2023-07-22T02:53:32;26.20;39.60
56172;DHT22;42052;41.634;-0.946;2023-07-22T02:55:59;26.20;39.80
56172;DHT22;42052;41.634;-0.946;2023-07-22T02:58:25;26.20;39.70
56172;DHT22;42052;41.634;-0.946;2023-07-22T03:00:51;26.20;39.80
56172;DHT22;42052;41.634;-0.946;2023-07-22T03:03:16;26.20;39.80
56172;DHT22;42052;41.634;-0.946;2023-07-22T03:05:44;26.20;39.80
56172;DHT22;42052;41.634;-0.946;2023-07-22T03:08:10;26.20;40.00
56172;DHT22;42052;41.634;-0.946;2023-07-22T03:10:36;26.20;39.90
56172;DHT22;42052;41.634;-0.946;2023-07-22T03:13:01;26.20;40.00
56172;DHT22;42052;41.634;-0.946;2023-07-22T03:15:27;26.20;40.10
56172;DHT22;42052;41.634;-0.946;2023-07-22T03:17:54;26.20;40.10
56172;DHT22;42052;41.634;-0.946;2023-07-22T03:20:21;26.20;40.10
56172;DHT22;42052;41.634;-0.946;2023-07-22T03:22:48;26.20;40.20
56172;DHT22;42052;41.634;-0.946;2023-07-22T03:25:15;26.20;40.20
56172;DHT22;42052;41.634;-0.946;2023-07-22T03:27:43;26.20;40.10
56172;DHT22;42052;41.634;-0.946;2023-07-22T03:30:14;26.20;40.20
56172;DHT22;42052;41.634;-0.946;2023-07-22T03:32:41;26.20;40.20
56172;DHT22;42052;41.634;-0.946;2023-07-22T03:35:08;26.20;40.20
56172;DHT22;42052;41.634;-0.946;2023-07-22T03:37:38;26.20;41.10
56172;DHT22;42052;41.634;-0.946;2023-07-22T03:40:04;26.20;40.30
56172;DHT22;42052;41.634;-0.946;2023-07-22T03:42:36;26.20;40.40
56172;DHT22;42052;41.634;-0.946;2023-07-22T03:45:02;26.20;40.50
56172;DHT22;42052;41.634;-0.946;2023-07-22T03:47:28;26.20;40.50
56172;DHT22;42052;41.634;-0.946;2023-07-22T03:49:53;26.20;40.60
56172;DHT22;42052;41.634;-0.946;2023-07-22T03:52:19;26.20;40.80
56172;DHT22;42052;41.634;-0.946;2023-07-22T03:54:45;26.20;40.90
56172;DHT22;42052;41.634;-0.946;2023-07-22T03:57:11;26.10;40.80
56172;DHT22;42052;41.634;-0.946;2023-07-22T03:59:36;26.10;41.00
56172;DHT22;42052;41.634;-0.946;2023-07-22T04:02:02;26.10;41.10
56172;DHT22;42052;41.634;-0.946;2023-07-22T04:04:29;26.10;41.30
56172;DHT22;42052;41.634;-0.946;2023-07-22T04:06:54;26.10;41.40
56172;DHT22;42052;41.634;-0.946;2023-07-22T04:09:20;26.10;41.50
56172;DHT22;42052;41.634;-0.946;2023-07-22T04:11:46;26.10;41.60
56172;DHT22;42052;41.634;-0.946;2023-07-22T04:14:12;26.10;41.60
56172;DHT22;42052;41.634;-0.946;2023-07-22T04:16:39;26.10;41.70
56172;DHT22;42052;41.634;-0.946;2023-07-22T04:19:05;26.10;41.80
56172;DHT22;42052;41.634;-0.946;2023-07-22T04:21:30;26.10;41.80
56172;DHT22;42052;41.634;-0.946;2023-07-22T04:23:56;26.10;41.90
56172;DHT22;42052;41.634;-0.946;2023-07-22T04:26:22;26.10;42.00
56172;DHT22;42052;41.634;-0.946;2023-07-22T04:28:48;26.10;42.00
56172;DHT22;42052;41.634;-0.946;2023-07-22T04:31:14;26.00;42.00
56172;DHT22;42052;41.634;-0.946;2023-07-22T04:33:39;26.10;42.20
56172;DHT22;42052;41.634;-0.946;2023-07-22T04:36:07;26.00;42.20
56172;DHT22;42052;41.634;-0.946;2023-07-22T04:38:33;26.00;42.20
56172;DHT22;42052;41.634;-0.946;2023-07-22T04:40:58;26.00;42.30
56172;DHT22;42052;41.634;-0.946;2023-07-22T04:43:27;26.00;42.40
56172;DHT22;42052;41.634;-0.946;2023-07-22T04:45:53;26.00;42.40
56172;DHT22;42052;41.634;-0.946;2023-07-22T04:48:20;26.00;42.40
56172;DHT22;42052;41.634;-0.946;2023-07-22T04:50:47;26.00;42.40
56172;DHT22;42052;41.634;-0.946;2023-07-22T04:53:13;26.00;42.50
56172;DHT22;42052;41.634;-0.946;2023-07-22T04:55:39;26.00;42.50
56172;DHT22;42052;41.634;-0.946;2023-07-22T04:58:05;26.00;42.50
56172;DHT22;42052;41.634;-0.946;2023-07-22T05:00:31;26.00;42.60
56172;DHT22;42052;41.634;-0.946;2023-07-22T05:02:57;26.00;42.60
56172;DHT22;42052;41.634;-0.946;2023-07-22T05:05:23;26.00;42.60
56172;DHT22;42052;41.634;-0.946;2023-07-22T05:07:49;26.00;42.70
56172;DHT22;42052;41.634;-0.946;2023-07-22T05:10:15;26.00;42.70
56172;DHT22;42052;41.634;-0.946;2023-07-22T05:12:44;26.00;42.80
56172;DHT22;42052;41.634;-0.946;2023-07-22T05:15:10;26.00;42.80
56172;DHT22;42052;41.634;-0.946;2023-07-22T05:17:37;26.00;42.90
56172;DHT22;42052;41.634;-0.946;2023-07-22T05:20:03;26.00;43.00
56172;DHT22;42052;41.634;-0.946;2023-07-22T05:22:32;26.00;43.00
56172;DHT22;42052;41.634;-0.946;2023-07-22T05:24:58;26.00;43.00
56172;DHT22;42052;41.634;-0.946;2023-07-22T05:27:25;26.00;43.10
56172;DHT22;42052;41.634;-0.946;2023-07-22T05:29:50;26.00;43.20
56172;DHT22;42052;41.634;-0.946;2023-07-22T05:32:16;26.00;43.20
56172;DHT22;42052;41.634;-0.946;2023-07-22T05:34:42;26.00;43.30
56172;DHT22;42052;41.634;-0.946;2023-07-22T05:37:08;26.00;43.30
56172;DHT22;42052;41.634;-0.946;2023-07-22T05:39:34;26.00;44.10
56172;DHT22;42052;41.634;-0.946;2023-07-22T05:42:00;26.00;43.40
56172;DHT22;42052;41.634;-0.946;2023-07-22T05:44:25;26.00;43.40
56172;DHT22;42052;41.634;-0.946;2023-07-22T05:46:51;26.00;43.60
56172;DHT22;42052;41.634;-0.946;2023-07-22T05:49:17;26.00;43.50
56172;DHT22;42052;41.634;-0.946;2023-07-22T05:51:43;26.00;43.50
56172;DHT22;42052;41.634;-0.946;2023-07-22T05:54:08;25.90;43.50
56172;DHT22;42052;41.634;-0.946;2023-07-22T05:56:34;25.90;43.50
56172;DHT22;42052;41.634;-0.946;2023-07-22T05:59:00;25.90;43.60
56172;DHT22;42052;41.634;-0.946;2023-07-22T06:01:26;25.90;43.60
56172;DHT22;42052;41.634;-0.946;2023-07-22T06:03:52;25.90;43.70
56172;DHT22;42052;41.634;-0.946;2023-07-22T06:06:18;25.90;43.70
56172;DHT22;42052;41.634;-0.946;2023-07-22T06:08:44;25.90;43.80
56172;DHT22;42052;41.634;-0.946;2023-07-22T06:11:09;25.90;43.70
56172;DHT22;42052;41.634;-0.946;2023-07-22T06:13:35;25.90;43.80
56172;DHT22;42052;41.634;-0.946;2023-07-22T06:16:01;25.90;43.80
56172;DHT22;42052;41.634;-0.946;2023-07-22T06:18:27;25.90;43.90
56172;DHT22;42052;41.634;-0.946;2023-07-22T06:20:52;25.90;43.90
56172;DHT22;42052;41.634;-0.946;2023-07-22T06:23:18;25.90;44.00
56172;DHT22;42052;41.634;-0.946;2023-07-22T06:25:44;25.90;44.00
56172;DHT22;42052;41.634;-0.946;2023-07-22T06:28:09;25.90;44.10
56172;DHT22;42052;41.634;-0.946;2023-07-22T06:30:35;25.90;44.10
56172;DHT22;42052;41.634;-0.946;2023-07-22T06:33:01;25.90;44.10
56172;DHT22;42052;41.634;-0.946;2023-07-22T06:35:27;25.80;44.10
56172;DHT22;42052;41.634;-0.946;2023-07-22T06:37:52;25.80;44.10
56172;DHT22;42052;41.634;-0.946;2023-07-22T06:40:18;25.80;44.10
56172;DHT22;42052;41.634;-0.946;2023-07-22T06:42:44;25.80;44.20
56172;DHT22;42052;41.634;-0.946;2023-07-22T06:45:10;25.80;44.30
56172;DHT22;42052;41.634;-0.946;2023-07-22T06:47:36;25.80;44.40
56172;DHT22;42052;41.634;-0.946;2023-07-22T06:50:03;25.80;44.40
56172;DHT22;42052;41.634;-0.946;2023-07-22T06:52:30;25.80;44.40
56172;DHT22;42052;41.634;-0.946;2023-07-22T06:54:56;25.80;44.50
56172;DHT22;42052;41.634;-0.946;2023-07-22T06:57:22;25.80;44.40
56172;DHT22;42052;41.634;-0.946;2023-07-22T06:59:48;25.80;44.60
56172;DHT22;42052;41.634;-0.946;2023-07-22T07:02:16;25.80;45.30
56172;DHT22;42052;41.634;-0.946;2023-07-22T07:04:42;25.80;44.60
56172;DHT22;42052;41.634;-0.946;2023-07-22T07:07:07;25.80;44.60
56172;DHT22;42052;41.634;-0.946;2023-07-22T07:09:35;25.80;44.70
56172;DHT22;42052;41.634;-0.946;2023-07-22T07:12:00;25.80;44.60
56172;DHT22;42052;41.634;-0.946;2023-07-22T07:14:27;25.80;44.70
56172;DHT22;42052;41.634;-0.946;2023-07-22T07:16:53;25.80;44.70
56172;DHT22;42052;41.634;-0.946;2023-07-22T07:19:19;25.80;44.70
56172;DHT22;42052;41.634;-0.946;2023-07-22T07:21:45;25.80;44.80
56172;DHT22;42052;41.634;-0.946;2023-07-22T07:24:11;25.80;44.70
56172;DHT22;42052;41.634;-0.946;2023-07-22T07:26:37;25.80;44.80
56172;DHT22;42052;41.634;-0.946;2023-07-22T07:29:02;25.80;44.90
56172;DHT22;42052;41.634;-0.946;2023-07-22T07:31:28;25.80;45.30
56172;DHT22;42052;41.634;-0.946;2023-07-22T07:33:54;25.80;44.90
56172;DHT22;42052;41.634;-0.946;2023-07-22T07:36:20;25.90;44.90
56172;DHT22;42052;41.634;-0.946;2023-07-22T07:38:45;25.80;44.90
56172;DHT22;42052;41.634;-0.946;2023-07-22T07:41:11;25.80;44.90
56172;DHT22;42052;41.634;-0.946;2023-07-22T07:43:39;25.80;44.90
56172;DHT22;42052;41.634;-0.946;2023-07-22T07:48:57;25.80;44.90
56172;DHT22;42052;41.634;-0.946;2023-07-22T07:51:24;25.80;45.00
56172;DHT22;42052;41.634;-0.946;2023-07-22T07:53:52;25.80;45.00
56172;DHT22;42052;41.634;-0.946;2023-07-22T07:56:18;25.80;45.00
56172;DHT22;42052;41.634;-0.946;2023-07-22T07:58:46;25.90;45.00
56172;DHT22;42052;41.634;-0.946;2023-07-22T08:01:12;25.80;45.00
56172;DHT22;42052;41.634;-0.946;2023-07-22T08:03:39;25.80;45.00
56172;DHT22;42052;41.634;-0.946;2023-07-22T08:06:05;25.80;44.90
56172;DHT22;42052;41.634;-0.946;2023-07-22T08:08:32;25.80;44.90
56172;DHT22;42052;41.634;-0.946;2023-07-22T08:11:12;25.90;45.10
56172;DHT22;42052;41.634;-0.946;2023-07-22T08:13:39;25.80;45.10
56172;DHT22;42052;41.634;-0.946;2023-07-22T08:16:07;25.90;45.20
56172;DHT22;42052;41.634;-0.946;2023-07-22T08:18:34;25.90;45.20
56172;DHT22;42052;41.634;-0.946;2023-07-22T08:21:01;25.90;45.10
56172;DHT22;42052;41.634;-0.946;2023-07-22T08:23:28;25.90;45.10
56172;DHT22;42052;41.634;-0.946;2023-07-22T08:25:54;25.90;45.20
56172;DHT22;42052;41.634;-0.946;2023-07-22T08:28:20;25.90;45.20
56172;DHT22;42052;41.634;-0.946;2023-07-22T08:30:48;25.90;45.30
56172;DHT22;42052;41.634;-0.946;2023-07-22T08:33:14;25.90;45.40
56172;DHT22;42052;41.634;-0.946;2023-07-22T08:35:40;25.90;45.40
56172;DHT22;42052;41.634;-0.946;2023-07-22T08:38:07;25.90;45.40
56172;DHT22;42052;41.634;-0.946;2023-07-22T08:40:35;25.90;45.60
56172;DHT22;42052;41.634;-0.946;2023-07-22T08:43:03;25.90;45.50
56172;DHT22;42052;41.634;-0.946;2023-07-22T08:45:31;25.90;45.50
56172;DHT22;42052;41.634;-0.946;2023-07-22T08:47:58;25.90;45.60
56172;DHT22;42052;41.634;-0.946;2023-07-22T08:50:29;25.90;45.70
56172;DHT22;42052;41.634;-0.946;2023-07-22T08:52:56;26.00;45.70
56172;DHT22;42052;41.634;-0.946;2023-07-22T08:55:23;26.00;45.70
56172;DHT22;42052;41.634;-0.946;2023-07-22T08:57:50;25.90;45.60
56172;DHT22;42052;41.634;-0.946;2023-07-22T09:00:16;26.00;45.70
56172;DHT22;42052;41.634;-0.946;2023-07-22T09:02:44;26.00;45.70
56172;DHT22;42052;41.634;-0.946;2023-07-22T09:05:10;26.00;45.70
56172;DHT22;42052;41.634;-0.946;2023-07-22T09:07:37;26.00;45.60
56172;DHT22;42052;41.634;-0.946;2023-07-22T09:10:08;26.00;45.80
56172;DHT22;42052;41.634;-0.946;2023-07-22T09:12:35;26.00;45.80
56172;DHT22;42052;41.634;-0.946;2023-07-22T09:15:12;26.00;45.90
56172;DHT22;42052;41.634;-0.946;2023-07-22T09:17:39;26.00;45.90
56172;DHT22;42052;41.634;-0.946;2023-07-22T09:20:05;26.00;45.90
56172;DHT22;42052;41.634;-0.946;2023-07-22T09:22:34;26.00;45.80
56172;DHT22;42052;41.634;-0.946;2023-07-22T09:25:20;26.00;45.80
56172;DHT22;42052;41.634;-0.946;2023-07-22T09:27:49;26.00;45.70
56172;DHT22;42052;41.634;-0.946;2023-07-22T09:30:34;26.00;45.70
56172;DHT22;42052;41.634;-0.946;2023-07-22T09:33:04;26.00;45.70
56172;DHT22;42052;41.634;-0.946;2023-07-22T09:35:45;26.10;45.80
56172;DHT22;42052;41.634;-0.946;2023-07-22T09:38:12;26.10;45.90
56172;DHT22;42052;41.634;-0.946;2023-07-22T09:40:40;26.10;46.00
56172;DHT22;42052;41.634;-0.946;2023-07-22T09:43:10;26.10;46.10
56172;DHT22;42052;41.634;-0.946;2023-07-22T09:45:36;26.10;46.10
56172;DHT22;42052;41.634;-0.946;2023-07-22T09:48:03;26.10;46.10
56172;DHT22;42052;41.634;-0.946;2023-07-22T09:50:29;26.10;46.00
56172;DHT22;42052;41.634;-0.946;2023-07-22T09:52:57;26.10;45.90
56172;DHT22;42052;41.634;-0.946;2023-07-22T09:55:30;26.10;45.90
56172;DHT22;42052;41.634;-0.946;2023-07-22T09:58:04;26.10;45.90
56172;DHT22;42052;41.634;-0.946;2023-07-22T10:00:35;26.20;46.00
56172;DHT22;42052;41.634;-0.946;2023-07-22T10:03:03;26.20;46.10
56172;DHT22;42052;41.634;-0.946;2023-07-22T10:05:34;26.20;46.10
56172;DHT22;42052;41.634;-0.946;2023-07-22T10:08:02;26.20;46.00
56172;DHT22;42052;41.634;-0.946;2023-07-22T10:12:57;26.20;45.90
56172;DHT22;42052;41.634;-0.946;2023-07-22T10:15:25;26.20;45.90
56172;DHT22;42052;41.634;-0.946;2023-07-22T10:17:51;26.20;45.90
56172;DHT22;42052;41.634;-0.946;2023-07-22T10:20:19;26.20;45.90
56172;DHT22;42052;41.634;-0.946;2023-07-22T10:22:46;26.20;45.80
56172;DHT22;42052;41.634;-0.946;2023-07-22T10:25:16;26.30;45.80
56172;DHT22;42052;41.634;-0.946;2023-07-22T10:27:43;26.30;45.70
56172;DHT22;42052;41.634;-0.946;2023-07-22T10:30:13;26.30;45.80
56172;DHT22;42052;41.634;-0.946;2023-07-22T10:32:46;26.30;45.70
56172;DHT22;42052;41.634;-0.946;2023-07-22T10:38:11;26.30;45.70
56172;DHT22;42052;41.634;-0.946;2023-07-22T10:40:49;26.40;45.70
56172;DHT22;42052;41.634;-0.946;2023-07-22T10:43:17;26.40;45.80
56172;DHT22;42052;41.634;-0.946;2023-07-22T10:45:50;26.40;45.80
56172;DHT22;42052;41.634;-0.946;2023-07-22T10:48:18;26.40;45.80
56172;DHT22;42052;41.634;-0.946;2023-07-22T10:50:50;26.40;45.80
56172;DHT22;42052;41.634;-0.946;2023-07-22T10:53:20;26.40;45.70
56172;DHT22;42052;41.634;-0.946;2023-07-22T10:59:12;26.40;45.70
56172;DHT22;42052;41.634;-0.946;2023-07-22T11:01:31;26.40;45.70
56172;DHT22;42052;41.634;-0.946;2023-07-22T11:04:13;26.40;45.60
56172;DHT22;42052;41.634;-0.946;2023-07-22T11:12:06;26.50;45.50
56172;DHT22;42052;41.634;-0.946;2023-07-22T11:14:41;26.50;45.50
56172;DHT22;42052;41.634;-0.946;2023-07-22T11:17:07;26.50;45.50
56172;DHT22;42052;41.634;-0.946;2023-07-22T11:19:34;26.50;45.30
56172;DHT22;42052;41.634;-0.946;2023-07-22T11:22:00;26.50;45.20
56172;DHT22;42052;41.634;-0.946;2023-07-22T11:24:26;26.50;45.20
56172;DHT22;42052;41.634;-0.946;2023-07-22T11:26:53;26.50;45.10
56172;DHT22;42052;41.634;-0.946;2023-07-22T11:29:19;26.50;45.00
56172;DHT22;42052;41.634;-0.946;2023-07-22T11:31:47;26.60;45.90
56172;DHT22;42052;41.634;-0.946;2023-07-22T11:34:15;26.60;45.00
56172;DHT22;42052;41.634;-0.946;2023-07-22T11:36:42;26.60;44.90
56172;DHT22;42052;41.634;-0.946;2023-07-22T11:39:09;26.60;44.90
56172;DHT22;42052;41.634;-0.946;2023-07-22T11:41:36;26.60;44.80
56172;DHT22;42052;41.634;-0.946;2023-07-22T11:44:03;26.60;44.70
56172;DHT22;42052;41.634;-0.946;2023-07-22T11:46:35;26.60;44.60
56172;DHT22;42052;41.634;-0.946;2023-07-22T11:49:01;26.60;44.60
56172;DHT22;42052;41.634;-0.946;2023-07-22T11:51:27;26.60;44.50
56172;DHT22;42052;41.634;-0.946;2023-07-22T11:53:54;26.60;44.50
56172;DHT22;42052;41.634;-0.946;2023-07-22T11:56:26;26.60;44.40
56172;DHT22;42052;41.634;-0.946;2023-07-22T11:58:55;26.60;44.50
56172;DHT22;42052;41.634;-0.946;2023-07-22T12:01:23;26.60;44.40
56172;DHT22;42052;41.634;-0.946;2023-07-22T12:03:49;26.70;44.50
56172;DHT22;42052;41.634;-0.946;2023-07-22T12:06:20;26.70;44.40
56172;DHT22;42052;41.634;-0.946;2023-07-22T12:08:52;26.70;44.40
56172;DHT22;42052;41.634;-0.946;2023-07-22T12:11:22;26.70;44.40
56172;DHT22;42052;41.634;-0.946;2023-07-22T12:16:35;26.70;44.30
56172;DHT22;42052;41.634;-0.946;2023-07-22T12:19:02;26.70;44.30
56172;DHT22;42052;41.634;-0.946;2023-07-22T12:21:28;26.70;44.50
56172;DHT22;42052;41.634;-0.946;2023-07-22T12:23:54;26.70;44.60
56172;DHT22;42052;41.634;-0.946;2023-07-22T12:26:20;26.70;44.60
56172;DHT22;42052;41.634;-0.946;2023-07-22T12:28:46;26.70;44.60
56172;DHT22;42052;41.634;-0.946;2023-07-22T12:31:12;26.70;44.60
56172;DHT22;42052;41.634;-0.946;2023-07-22T12:33:38;26.70;44.70
56172;DHT22;42052;41.634;-0.946;2023-07-22T12:36:04;26.70;44.60
56172;DHT22;42052;41.634;-0.946;2023-07-22T12:38:31;26.70;44.60
56172;DHT22;42052;41.634;-0.946;2023-07-22T12:40:57;26.70;44.70
56172;DHT22;42052;41.634;-0.946;2023-07-22T12:43:22;26.70;44.70
56172;DHT22;42052;41.634;-0.946;2023-07-22T12:45:48;26.70;44.70
56172;DHT22;42052;41.634;-0.946;2023-07-22T12:48:15;26.70;44.60
56172;DHT22;42052;41.634;-0.946;2023-07-22T12:50:41;26.70;44.60
56172;DHT22;42052;41.634;-0.946;2023-07-22T12:53:08;26.80;44.70
56172;DHT22;42052;41.634;-0.946;2023-07-22T12:55:34;26.70;44.60
56172;DHT22;42052;41.634;-0.946;2023-07-22T12:57:59;26.80;44.70
56172;DHT22;42052;41.634;-0.946;2023-07-22T13:00:25;26.80;44.70
56172;DHT22;42052;41.634;-0.946;2023-07-22T13:02:51;26.80;44.70
56172;DHT22;42052;41.634;-0.946;2023-07-22T13:05:18;26.80;44.70
56172;DHT22;42052;41.634;-0.946;2023-07-22T13:07:44;26.80;44.70
56172;DHT22;42052;41.634;-0.946;2023-07-22T13:10:10;26.80;44.70
56172;DHT22;42052;41.634;-0.946;2023-07-22T13:12:38;26.80;44.70
56172;DHT22;42052;41.634;-0.946;2023-07-22T13:15:05;26.80;44.70
56172;DHT22;42052;41.634;-0.946;2023-07-22T13:17:31;26.80;44.70
56172;DHT22;42052;41.634;-0.946;2023-07-22T13:19:57;26.80;44.70
56172;DHT22;42052;41.634;-0.946;2023-07-22T13:22:23;26.80;44.70
56172;DHT22;42052;41.634;-0.946;2023-07-22T13:24:48;26.80;44.70
56172;DHT22;42052;41.634;-0.946;2023-07-22T13:27:14;26.80;44.70
56172;DHT22;42052;41.634;-0.946;2023-07-22T13:29:40;26.80;44.70
56172;DHT22;42052;41.634;-0.946;2023-07-22T13:32:06;26.80;44.70
56172;DHT22;42052;41.634;-0.946;2023-07-22T13:34:32;26.80;44.70
56172;DHT22;42052;41.634;-0.946;2023-07-22T13:36:58;26.80;44.70
56172;DHT22;42052;41.634;-0.946;2023-07-22T13:39:24;26.80;44.70
56172;DHT22;42052;41.634;-0.946;2023-07-22T13:41:50;26.80;44.70
56172;DHT22;42052;41.634;-0.946;2023-07-22T13:44:16;26.80;44.70
56172;DHT22;42052;41.634;-0.946;2023-07-22T13:46:42;26.80;44.70
56172;DHT22;42052;41.634;-0.946;2023-07-22T13:49:08;26.80;44.70
56172;DHT22;42052;41.634;-0.946;2023-07-22T13:51:34;26.80;44.70
56172;DHT22;42052;41.634;-0.946;2023-07-22T13:53:59;26.80;44.70
56172;DHT22;42052;41.634;-0.946;2023-07-22T13:56:25;26.80;44.60
56172;DHT22;42052;41.634;-0.946;2023-07-22T13:58:51;26.80;44.70
56172;DHT22;42052;41.634;-0.946;2023-07-22T14:01:17;26.80;44.70
56172;DHT22;42052;41.634;-0.946;2023-07-22T14:03:43;26.80;44.70
56172;DHT22;42052;41.634;-0.946;2023-07-22T14:06:09;26.80;44.70
56172;DHT22;42052;41.634;-0.946;2023-07-22T14:08:35;26.80;44.70
56172;DHT22;42052;41.634;-0.946;2023-07-22T14:11:00;26.80;44.70
56172;DHT22;42052;41.634;-0.946;2023-07-22T14:13:26;26.80;44.70
56172;DHT22;42052;41.634;-0.946;2023-07-22T14:15:52;26.90;44.70
56172;DHT22;42052;41.634;-0.946;2023-07-22T14:18:18;26.90;44.70
56172;DHT22;42052;41.634;-0.946;2023-07-22T14:20:44;26.80;44.60
56172;DHT22;42052;41.634;-0.946;2023-07-22T14:23:14;26.90;44.70
56172;DHT22;42052;41.634;-0.946;2023-07-22T14:25:40;26.90;44.70
56172;DHT22;42052;41.634;-0.946;2023-07-22T14:28:05;26.90;44.60
56172;DHT22;42052;41.634;-0.946;2023-07-22T14:30:32;26.90;44.70
56172;DHT22;42052;41.634;-0.946;2023-07-22T14:32:58;26.90;44.70
56172;DHT22;42052;41.634;-0.946;2023-07-22T14:35:24;26.90;44.70
56172;DHT22;42052;41.634;-0.946;2023-07-22T14:37:50;26.90;44.70
56172;DHT22;42052;41.634;-0.946;2023-07-22T14:40:16;26.90;44.60
56172;DHT22;42052;41.634;-0.946;2023-07-22T14:42:42;26.90;44.70
56172;DHT22;42052;41.634;-0.946;2023-07-22T14:45:09;26.90;44.60
56172;DHT22;42052;41.634;-0.946;2023-07-22T14:47:34;26.90;44.60
56172;DHT22;42052;41.634;-0.946;2023-07-22T14:50:01;26.90;44.60
56172;DHT22;42052;41.634;-0.946;2023-07-22T14:52:27;26.90;44.60
56172;DHT22;42052;41.634;-0.946;2023-07-22T14:54:52;26.90;44.70
56172;DHT22;42052;41.634;-0.946;2023-07-22T14:57:18;26.90;44.60
56172;DHT22;42052;41.634;-0.946;2023-07-22T14:59:44;26.90;44.60
56172;DHT22;42052;41.634;-0.946;2023-07-22T15:02:10;26.90;44.60
56172;DHT22;42052;41.634;-0.946;2023-07-22T15:04:36;26.90;44.60
56172;DHT22;42052;41.634;-0.946;2023-07-22T15:07:02;26.90;44.70
56172;DHT22;42052;41.634;-0.946;2023-07-22T15:09:28;26.90;44.60
56172;DHT22;42052;41.634;-0.946;2023-07-22T15:11:54;26.90;44.70
56172;DHT22;42052;41.634;-0.946;2023-07-22T15:14:19;26.90;44.60
56172;DHT22;42052;41.634;-0.946;2023-07-22T15:16:45;26.90;44.60
56172;DHT22;42052;41.634;-0.946;2023-07-22T15:19:11;27.00;44.70
56172;DHT22;42052;41.634;-0.946;2023-07-22T15:21:37;26.90;44.60
56172;DHT22;42052;41.634;-0.946;2023-07-22T15:24:03;26.90;44.60
56172;DHT22;42052;41.634;-0.946;2023-07-22T15:26:29;26.90;44.60
56172;DHT22;42052;41.634;-0.946;2023-07-22T15:28:55;27.00;44.70
56172;DHT22;42052;41.634;-0.946;2023-07-22T15:31:20;27.00;44.70
56172;DHT22;42052;41.634;-0.946;2023-07-22T15:33:46;27.00;44.70